Terminal Aerodrome Forecast
Issued by NWS

Current Version | Previous Version | Text Only | Print | Product List | Glossary On
Versions: 1 2 3 4 5 6 7 8 9 10 11 12 13
000
FTUS45 KRIW 030539
TAFRKS
TAF
KRKS 030539Z 0306/0406 18007KT P6SM FEW090 SCT200
     FM031700 25011G20KT P6SM FEW070 BKN200
     FM032100 22011KT P6SM VCSH SCT060 BKN080
     FM040400 18007KT P6SM FEW090 SCT200=

USA.gov is the U.S. government's official web portal to all federal, state and local government web resources and services.